createdAt,value
2022-12-08T00:01:41.662Z,91.01
2022-12-08T00:04:10.731Z,91.27
2022-12-08T00:07:02.454Z,91.03
2022-12-08T00:09:40.751Z,91.06
2022-12-08T00:12:16.283Z,91.09
2022-12-08T00:14:46.489Z,91.05
2022-12-08T00:17:19.477Z,90.89
2022-12-08T00:19:47.873Z,90.92
2022-12-08T00:22:20.684Z,90.65
2022-12-08T00:24:52.144Z,91.01
2022-12-08T00:27:23.856Z,90.94
2022-12-08T00:29:53.559Z,90.50
2022-12-08T00:32:23.449Z,90.70
2022-12-08T00:34:51.060Z,90.73
2022-12-08T00:37:22.869Z,90.67
2022-12-08T00:39:50.638Z,91.00
2022-12-08T00:42:21.117Z,90.79
2022-12-08T00:44:52.981Z,90.89
2022-12-08T00:47:25.091Z,90.63
2022-12-08T00:49:54.938Z,90.69
2022-12-08T00:52:24.767Z,90.53
2022-12-08T00:54:53.168Z,90.64
2022-12-08T00:57:20.926Z,90.76
2022-12-08T00:59:48.731Z,90.75
2022-12-08T01:02:16.313Z,90.52
2022-12-08T01:04:44.268Z,90.67
2022-12-08T01:07:11.741Z,90.53
2022-12-08T01:09:39.285Z,90.65
2022-12-08T01:12:08.373Z,90.50
2022-12-08T01:14:37.438Z,90.48
2022-12-08T01:17:04.988Z,90.55
2022-12-08T01:19:32.619Z,90.57
2022-12-08T01:22:00.575Z,90.52
2022-12-08T01:24:28.226Z,90.48
2022-12-08T01:26:56.144Z,90.50
2022-12-08T01:29:29.103Z,90.67
2022-12-08T01:32:02.167Z,90.73
2022-12-08T01:34:29.912Z,90.49
2022-12-08T01:36:59.635Z,90.81
2022-12-08T01:39:29.964Z,90.35
2022-12-08T01:42:01.425Z,90.79
2022-12-08T01:44:30.992Z,90.67
2022-12-08T01:46:58.568Z,90.63
2022-12-08T01:49:37.388Z,90.41
2022-12-08T01:52:32.792Z,90.80
2022-12-08T01:55:13.142Z,90.57
2022-12-08T01:57:58.327Z,90.38
2022-12-08T02:00:34.787Z,90.36
2022-12-08T02:03:13.591Z,90.78
2022-12-08T02:05:46.410Z,90.45
2022-12-08T02:08:18.465Z,90.39
2022-12-08T02:10:56.123Z,90.62
2022-12-08T02:13:29.132Z,90.35
2022-12-08T02:16:05.913Z,90.53
2022-12-08T02:19:29.772Z,90.60
2022-12-08T02:22:24.959Z,90.36
2022-12-08T02:25:33.040Z,90.40
2022-12-08T02:28:38.854Z,90.38
2022-12-08T02:31:53.069Z,90.29
2022-12-08T02:34:31.589Z,90.32
2022-12-08T02:37:22.177Z,90.54
2022-12-08T02:39:56.447Z,90.42
2022-12-08T02:42:56.507Z,90.56
2022-12-08T02:45:48.557Z,90.33
2022-12-08T02:48:19.716Z,90.17
2022-12-08T02:50:54.107Z,90.42
2022-12-08T02:53:28.084Z,90.10
2022-12-08T02:56:15.303Z,90.25
2022-12-08T02:59:04.380Z,90.31
2022-12-08T03:02:12.189Z,90.14
2022-12-08T03:04:46.501Z,90.36
2022-12-08T03:07:28.792Z,90.21
2022-12-08T03:10:24.184Z,90.42
2022-12-08T03:13:06.395Z,90.39
2022-12-08T03:15:41.101Z,90.31
2022-12-08T03:18:16.011Z,90.21
2022-12-08T03:20:53.374Z,90.11
2022-12-08T03:23:26.358Z,90.15
2022-12-08T03:26:11.797Z,90.37
2022-12-08T03:28:46.227Z,90.35
2022-12-08T03:31:21.532Z,90.27
2022-12-08T03:34:01.210Z,90.38
2022-12-08T03:36:38.734Z,90.35
2022-12-08T03:39:13.127Z,90.11
2022-12-08T03:41:46.644Z,90.21
2022-12-08T03:44:18.422Z,90.30
2022-12-08T03:46:56.458Z,90.17
2022-12-08T03:49:29.638Z,90.20
2022-12-08T03:52:07.611Z,90.20
2022-12-08T03:54:39.339Z,90.23
2022-12-08T03:57:11.273Z,90.11
2022-12-08T03:59:44.761Z,90.19
2022-12-08T04:02:16.288Z,90.20
2022-12-08T04:04:49.074Z,89.83
2022-12-08T04:07:20.761Z,90.03
2022-12-08T04:09:55.832Z,90.10
2022-12-08T04:12:29.294Z,89.89
2022-12-08T04:15:00.735Z,90.00
2022-12-08T04:17:32.450Z,90.03
2022-12-08T04:20:04.519Z,90.02
2022-12-08T04:22:42.220Z,89.94
2022-12-08T04:25:16.254Z,90.11
2022-12-08T04:27:53.746Z,90.02
2022-12-08T04:30:44.440Z,89.93
2022-12-08T04:33:19.156Z,89.99
2022-12-08T04:35:53.613Z,89.75
2022-12-08T04:38:28.928Z,90.12
2022-12-08T04:41:01.286Z,89.80
2022-12-08T04:43:35.419Z,89.89
2022-12-08T04:46:09.095Z,89.98
2022-12-08T04:48:41.305Z,89.92
2022-12-08T04:51:20.628Z,89.96
2022-12-08T04:53:54.538Z,89.99
2022-12-08T04:56:30.900Z,90.06
2022-12-08T04:59:09.573Z,89.97
2022-12-08T05:01:47.548Z,89.99
2022-12-08T05:04:21.295Z,89.85
2022-12-08T05:06:59.599Z,89.98
2022-12-08T05:09:31.462Z,89.69
2022-12-08T05:12:11.792Z,89.92
2022-12-08T05:14:45.038Z,89.81
2022-12-08T05:17:29.421Z,89.90
2022-12-08T05:23:37.537Z,89.93
2022-12-08T05:26:10.636Z,89.69
2022-12-08T05:28:57.409Z,89.76
2022-12-08T05:31:34.306Z,89.77
2022-12-08T05:37:49.951Z,89.58
2022-12-08T05:40:58.551Z,89.60
2022-12-08T06:07:29.392Z,89.40
2022-12-08T06:10:34.419Z,88.99
2022-12-08T06:13:14.246Z,89.00
2022-12-08T06:15:47.386Z,89.13
2022-12-08T06:18:21.320Z,89.16
2022-12-08T06:20:50.468Z,89.19
2022-12-08T06:23:18.524Z,88.95
2022-12-08T06:25:50.480Z,88.93
2022-12-08T06:28:22.907Z,88.84
2022-12-08T06:30:57.340Z,88.81
2022-12-08T06:33:38.571Z,88.79
2022-12-08T06:36:14.577Z,88.60
2022-12-08T06:42:28.179Z,88.50
2022-12-08T06:45:04.849Z,88.39
2022-12-08T06:47:40.962Z,88.40
2022-12-08T06:50:11.400Z,88.28
2022-12-08T06:52:55.781Z,88.15
2022-12-08T06:58:37.343Z,88.08
2022-12-08T07:01:16.700Z,88.28
2022-12-08T07:03:55.862Z,88.04
2022-12-08T07:06:26.392Z,88.12
2022-12-08T07:08:58.049Z,87.69
2022-12-08T07:11:27.486Z,88.15
2022-12-08T07:14:01.066Z,87.87
2022-12-08T07:16:29.819Z,87.82
2022-12-08T07:18:58.839Z,87.59
2022-12-08T07:21:28.151Z,88.11
2022-12-08T07:23:58.028Z,88.08
2022-12-08T07:26:26.968Z,87.78
2022-12-08T07:28:56.624Z,87.96
2022-12-08T07:32:14.414Z,88.03
2022-12-08T07:34:48.560Z,87.86
2022-12-08T07:37:15.930Z,87.88
2022-12-08T07:39:43.980Z,87.80
2022-12-08T07:42:13.610Z,87.50
2022-12-08T07:44:48.561Z,87.34
2022-12-08T07:47:18.290Z,87.31
2022-12-08T07:49:55.450Z,87.56
2022-12-08T07:52:24.422Z,87.52
2022-12-08T07:54:55.492Z,86.97
2022-12-08T07:57:23.656Z,86.96
2022-12-08T07:59:57.231Z,86.56
2022-12-08T08:02:26.192Z,87.10
2022-12-08T08:05:00.888Z,86.87
2022-12-08T08:07:46.365Z,87.16
2022-12-08T08:10:18.635Z,86.74
2022-12-08T08:12:50.761Z,86.77
2022-12-08T08:15:25.309Z,86.93
2022-12-08T08:18:01.224Z,86.84
2022-12-08T08:20:37.206Z,87.12
2022-12-08T08:23:19.337Z,87.11
2022-12-08T08:26:15.102Z,87.21
2022-12-08T08:29:27.411Z,87.08
2022-12-08T08:45:48.260Z,87.23
2022-12-08T08:56:28.887Z,86.71
2022-12-08T10:00:34.860Z,85.71
2022-12-08T10:23:09.444Z,85.22
2022-12-08T10:51:47.434Z,83.68
2022-12-08T11:19:07.380Z,86.22
2022-12-08T14:06:49.452Z,87.22
2022-12-08T15:48:38.313Z,87.91
2022-12-08T16:11:56.559Z,88.26
2022-12-08T16:33:37.888Z,88.17
2022-12-08T16:36:12.177Z,88.35
2022-12-08T16:38:43.411Z,88.17
2022-12-08T16:41:36.005Z,88.31
2022-12-08T16:54:36.410Z,88.33
2022-12-08T16:57:08.079Z,88.43
2022-12-08T17:40:58.440Z,88.74
2022-12-08T17:43:56.548Z,88.96
2022-12-08T18:23:57.324Z,89.19
2022-12-08T18:27:24.261Z,89.13
2022-12-08T18:30:54.569Z,89.26
2022-12-08T19:14:05.177Z,89.60
2022-12-08T20:47:02.434Z,90.00
2022-12-08T22:15:42.883Z,90.32
2022-12-08T22:18:19.031Z,90.21
2022-12-08T22:30:54.102Z,90.23
